createdAt,value
2018-08-02T00:00:56.195Z,41.50
2018-08-02T00:03:24.374Z,41.70
2018-08-02T00:05:52.622Z,41.50
2018-08-02T00:08:20.821Z,41.70
2018-08-02T00:10:49.061Z,41.90
2018-08-02T00:13:17.390Z,42.10
2018-08-02T00:15:45.571Z,42.30
2018-08-02T00:18:13.812Z,42.60
2018-08-02T00:20:42.095Z,42.80
2018-08-02T00:23:10.287Z,42.90
2018-08-02T00:28:06.494Z,43.70
2018-08-02T00:30:34.702Z,44.20
2018-08-02T00:33:02.983Z,44.60
2018-08-02T00:35:31.262Z,44.80
2018-08-02T00:37:59.480Z,45.60
2018-08-02T00:40:27.770Z,46.20
2018-08-02T00:42:55.996Z,46.20
2018-08-02T00:45:24.226Z,46.70
2018-08-02T00:47:52.414Z,46.80
2018-08-02T00:50:20.654Z,47.80
2018-08-02T00:52:48.869Z,47.40
2018-08-02T00:55:17.210Z,47.80
2018-08-02T00:57:45.380Z,47.80
2018-08-02T01:00:13.613Z,48.20
2018-08-02T01:02:41.845Z,48.40
2018-08-02T01:05:10.083Z,48.50
2018-08-02T01:07:38.310Z,48.50
2018-08-02T01:10:06.606Z,49.00
2018-08-02T01:12:34.998Z,49.00
2018-08-02T01:15:03.241Z,49.10
2018-08-02T01:17:31.451Z,49.30
2018-08-02T01:19:59.655Z,49.00
2018-08-02T01:22:27.887Z,49.20
2018-08-02T01:25:02.638Z,49.30
2018-08-02T01:27:30.802Z,49.10
2018-08-02T01:29:59.066Z,48.30
2018-08-02T01:32:27.257Z,48.00
2018-08-02T01:34:55.760Z,48.10
2018-08-02T01:37:24.014Z,47.70
2018-08-02T01:39:52.766Z,48.20
2018-08-02T01:42:20.959Z,48.00
2018-08-02T01:44:52.353Z,47.70
2018-08-02T01:47:21.763Z,47.70
2018-08-02T01:49:50.067Z,47.30
2018-08-02T01:52:18.239Z,47.10
2018-08-02T01:54:47.642Z,46.80
2018-08-02T01:57:16.446Z,46.60
2018-08-02T01:59:44.702Z,46.50
2018-08-02T02:02:12.982Z,46.50
2018-08-02T02:04:41.186Z,46.30
2018-08-02T02:07:09.396Z,46.20
2018-08-02T02:09:37.586Z,46.50
2018-08-02T02:12:05.790Z,46.50
2018-08-02T02:14:34.050Z,46.80
2018-08-02T02:17:02.292Z,46.70
2018-08-02T02:19:30.511Z,46.70
2018-08-02T02:21:58.690Z,47.20
2018-08-02T02:24:26.897Z,47.00
2018-08-02T02:26:55.114Z,47.40
2018-08-02T02:29:23.384Z,47.40
2018-08-02T02:31:51.667Z,48.10
2018-08-02T02:34:19.868Z,47.50
2018-08-02T02:36:48.154Z,47.70
2018-08-02T02:39:16.344Z,47.60
2018-08-02T02:41:44.570Z,47.80
2018-08-02T02:44:12.730Z,48.10
2018-08-02T02:46:40.919Z,48.10
2018-08-02T02:49:09.106Z,48.20
2018-08-02T02:51:37.366Z,48.30
2018-08-02T02:54:05.622Z,48.40
2018-08-02T02:59:02.238Z,48.00
2018-08-02T03:01:30.386Z,48.10
2018-08-02T03:03:58.653Z,47.90
2018-08-02T03:06:26.834Z,48.30
2018-08-02T03:08:55.070Z,48.20
2018-08-02T03:11:23.283Z,48.30
2018-08-02T03:13:51.518Z,48.40
2018-08-02T03:16:19.737Z,48.50
2018-08-02T03:18:48.023Z,48.60
2018-08-02T03:21:16.193Z,48.60
2018-08-02T03:23:44.437Z,48.60
2018-08-02T03:26:12.651Z,48.70
2018-08-02T03:28:40.895Z,48.90
2018-08-02T03:31:09.054Z,48.90
2018-08-02T03:33:37.362Z,48.90
2018-08-02T03:36:05.589Z,48.90
2018-08-02T03:38:33.822Z,49.30
2018-08-02T03:41:02.047Z,49.10
2018-08-02T03:43:30.238Z,49.30
2018-08-02T03:45:58.498Z,49.30
2018-08-02T03:48:26.811Z,49.10
2018-08-02T03:50:54.985Z,49.30
2018-08-02T03:53:23.213Z,49.50
2018-08-02T03:55:51.667Z,49.80
2018-08-02T04:00:47.984Z,50.00
2018-08-02T04:03:16.208Z,49.90
2018-08-02T04:05:44.414Z,49.60
2018-08-02T04:08:12.603Z,50.50
2018-08-02T04:10:40.779Z,50.00
2018-08-02T04:13:08.979Z,49.90
2018-08-02T04:15:37.194Z,50.60
2018-08-02T04:18:05.522Z,50.50
2018-08-02T04:20:33.702Z,50.60
2018-08-02T04:23:01.986Z,50.90
2018-08-02T04:25:30.177Z,50.90
2018-08-02T04:27:58.350Z,51.20
2018-08-02T04:30:26.660Z,51.00
2018-08-02T04:32:54.884Z,51.30
2018-08-02T04:35:23.132Z,51.80
2018-08-02T04:37:51.314Z,52.20
2018-08-02T04:40:19.610Z,52.60
2018-08-02T04:42:47.865Z,52.80
2018-08-02T04:45:16.113Z,52.70
2018-08-02T04:47:44.405Z,52.70
2018-08-02T04:50:12.798Z,52.40
2018-08-02T04:55:08.957Z,52.00
2018-08-02T04:57:37.113Z,51.40
2018-08-02T05:00:05.663Z,51.80
2018-08-02T05:02:33.874Z,50.90
2018-08-02T05:05:02.079Z,50.90
2018-08-02T05:07:30.561Z,50.50
2018-08-02T05:09:58.749Z,50.20
2018-08-02T05:12:26.944Z,50.30
2018-08-02T05:14:55.374Z,50.10
2018-08-02T05:17:23.598Z,50.20
2018-08-02T05:19:51.878Z,50.10
2018-08-02T05:22:20.065Z,50.20
2018-08-02T05:24:48.257Z,49.70
2018-08-02T05:27:16.502Z,49.20
2018-08-02T05:29:44.744Z,49.10
2018-08-02T05:32:12.954Z,49.10
2018-08-02T05:34:41.160Z,49.20
2018-08-02T05:37:09.309Z,49.30
2018-08-02T05:39:38.306Z,49.10
2018-08-02T05:42:06.546Z,49.70
2018-08-02T05:44:34.740Z,49.00
2018-08-02T05:47:02.929Z,49.20
2018-08-02T05:49:31.116Z,49.00
2018-08-02T05:51:59.365Z,48.60
2018-08-02T05:54:27.566Z,48.50
2018-08-02T05:56:55.826Z,48.10
2018-08-02T05:59:24.026Z,47.60
2018-08-02T06:01:52.173Z,46.80
2018-08-02T06:04:20.933Z,45.60
2018-08-02T06:06:49.138Z,44.90
2018-08-02T06:09:17.326Z,44.40
2018-08-02T06:11:45.688Z,43.60
2018-08-02T06:14:13.927Z,42.60
2018-08-02T06:16:42.288Z,41.80
2018-08-02T06:19:10.546Z,40.90
2018-08-02T06:21:38.758Z,40.00
2018-08-02T06:24:06.993Z,39.80
2018-08-02T06:26:35.239Z,39.40
2018-08-02T06:29:03.845Z,38.60
2018-08-02T06:31:32.136Z,37.40
2018-08-02T06:34:00.351Z,37.20
2018-08-02T06:36:28.745Z,36.60
2018-08-02T06:38:57.032Z,36.20
2018-08-02T06:43:52.216Z,35.20
2018-08-02T06:46:21.313Z,34.70
2018-08-02T06:48:49.046Z,34.90
2018-08-02T06:51:17.274Z,34.30
2018-08-02T06:53:45.488Z,33.80
2018-08-02T06:56:13.755Z,33.70
2018-08-02T06:58:41.960Z,33.90
2018-08-02T07:01:10.190Z,33.60
2018-08-02T07:03:38.386Z,33.00
2018-08-02T07:06:06.639Z,33.10
2018-08-02T07:08:34.822Z,32.80
2018-08-02T07:11:03.163Z,32.10
2018-08-02T07:13:31.350Z,32.10
2018-08-02T07:15:59.510Z,32.50
2018-08-02T07:18:27.736Z,32.40
2018-08-02T07:20:56.074Z,31.90
2018-08-02T07:23:24.742Z,31.50
2018-08-02T07:25:52.922Z,32.00
2018-08-02T07:28:21.257Z,32.00
2018-08-02T07:30:49.474Z,31.20
2018-08-02T07:33:18.258Z,30.60
2018-08-02T07:35:46.530Z,30.70
2018-08-02T07:38:14.713Z,30.50
2018-08-02T07:40:42.873Z,30.80
2018-08-02T07:43:11.082Z,30.10
2018-08-02T07:45:39.326Z,30.00
2018-08-02T07:48:07.530Z,30.10
2018-08-02T07:50:35.932Z,30.30
2018-08-02T07:53:04.163Z,30.00
2018-08-02T07:58:00.367Z,29.70
2018-08-02T08:00:28.595Z,29.50
2018-08-02T08:02:56.778Z,29.30
2018-08-02T08:05:25.092Z,29.00
2018-08-02T08:07:53.367Z,28.60
2018-08-02T08:10:21.593Z,28.60
2018-08-02T08:12:49.921Z,28.60
2018-08-02T08:15:18.143Z,28.00
2018-08-02T08:17:46.343Z,27.70
2018-08-02T08:20:14.582Z,28.00
2018-08-02T08:22:42.770Z,27.80
2018-08-02T08:25:10.995Z,27.90
2018-08-02T08:27:39.284Z,28.10
2018-08-02T08:30:07.495Z,28.30
2018-08-02T08:32:36.066Z,28.50
2018-08-02T08:35:04.258Z,28.50
2018-08-02T08:37:32.513Z,28.90
2018-08-02T08:40:00.759Z,29.50
2018-08-02T08:42:28.861Z,29.60
2018-08-02T08:44:57.029Z,30.00
2018-08-02T08:47:25.350Z,30.60
2018-08-02T08:49:53.500Z,30.50
2018-08-02T08:52:22.477Z,30.60
2018-08-02T08:54:51.747Z,30.60
2018-08-02T08:57:20.066Z,30.30
2018-08-02T08:59:49.822Z,30.30
2018-08-02T09:02:18.067Z,30.00
2018-08-02T09:04:46.545Z,30.10
2018-08-02T09:07:15.541Z,30.10
2018-08-02T09:09:43.871Z,29.80
2018-08-02T09:12:12.160Z,29.70
2018-08-02T09:14:40.354Z,30.00
2018-08-02T09:17:08.592Z,30.20
2018-08-02T09:19:36.894Z,30.20
2018-08-02T09:22:05.183Z,30.20
2018-08-02T09:24:34.485Z,29.80
2018-08-02T09:27:03.286Z,29.90
2018-08-02T09:29:31.467Z,29.20
2018-08-02T09:31:59.884Z,28.60
2018-08-02T09:34:28.082Z,28.70
2018-08-02T09:36:56.303Z,28.60
2018-08-02T09:39:24.565Z,28.40
2018-08-02T09:41:52.840Z,28.10
2018-08-02T09:44:21.156Z,27.90
2018-08-02T09:46:49.555Z,27.70
2018-08-02T09:49:17.699Z,27.60
2018-08-02T09:51:45.916Z,27.30
2018-08-02T09:54:14.186Z,27.10
2018-08-02T09:56:42.459Z,26.90
2018-08-02T09:59:10.850Z,27.00
2018-08-02T10:01:44.449Z,27.50
2018-08-02T10:04:12.642Z,28.10
2018-08-02T10:06:41.063Z,28.40
2018-08-02T10:09:10.539Z,29.20
2018-08-02T10:11:38.723Z,28.90
2018-08-02T10:14:06.962Z,29.20
2018-08-02T10:16:35.238Z,28.60
2018-08-02T10:19:03.504Z,28.20
2018-08-02T10:21:31.721Z,28.80
2018-08-02T10:23:59.933Z,28.70
2018-08-02T10:26:28.157Z,28.00
2018-08-02T10:28:56.347Z,28.10
2018-08-02T10:31:24.541Z,27.70
2018-08-02T10:33:52.758Z,27.70
2018-08-02T10:36:20.956Z,28.00
2018-08-02T10:38:49.130Z,27.60
2018-08-02T10:41:17.385Z,27.40
2018-08-02T10:43:45.603Z,26.90
2018-08-02T10:46:13.851Z,27.00
2018-08-02T10:48:42.055Z,27.80
2018-08-02T10:51:10.238Z,27.30
2018-08-02T10:53:38.513Z,28.30
2018-08-02T10:56:06.765Z,27.50
2018-08-02T10:58:34.965Z,27.50
2018-08-02T11:01:03.231Z,28.30
2018-08-02T11:05:59.877Z,28.70
2018-08-02T11:08:28.163Z,29.30
2018-08-02T11:10:56.494Z,29.70
2018-08-02T11:13:24.708Z,29.90
2018-08-02T11:15:52.934Z,30.30
2018-08-02T11:18:21.166Z,30.50
2018-08-02T11:20:49.453Z,31.00
2018-08-02T11:23:17.657Z,31.10
2018-08-02T11:25:45.854Z,30.90
2018-08-02T11:28:14.169Z,31.50
2018-08-02T11:30:42.594Z,31.60
2018-08-02T11:33:10.783Z,31.60
2018-08-02T11:35:38.987Z,31.80
2018-08-02T11:38:07.338Z,32.00
2018-08-02T11:40:35.703Z,32.40
2018-08-02T11:43:03.914Z,33.10
2018-08-02T11:45:32.112Z,33.50
2018-08-02T11:48:00.674Z,33.80
2018-08-02T11:50:28.901Z,33.50
2018-08-02T11:52:57.101Z,33.20
2018-08-02T11:55:25.415Z,33.20
2018-08-02T11:57:53.635Z,33.30
2018-08-02T12:00:21.901Z,33.60
2018-08-02T12:02:50.170Z,33.60
2018-08-02T12:05:18.370Z,33.20
2018-08-02T12:07:46.583Z,34.10
2018-08-02T12:10:14.849Z,34.60
2018-08-02T12:12:44.120Z,34.60
2018-08-02T12:15:12.387Z,34.30
2018-08-02T12:17:40.599Z,35.20
2018-08-02T12:20:08.970Z,35.50
2018-08-02T12:22:37.125Z,35.50
2018-08-02T12:25:05.333Z,35.10
2018-08-02T12:27:33.531Z,34.70
2018-08-02T12:30:02.048Z,34.70
2018-08-02T12:32:30.266Z,34.90
2018-08-02T12:34:58.450Z,34.20
2018-08-02T12:37:26.703Z,34.30
2018-08-02T12:39:54.898Z,34.80
2018-08-02T12:42:23.160Z,34.50
2018-08-02T12:44:51.413Z,35.00
2018-08-02T12:47:19.634Z,35.00
2018-08-02T12:49:47.943Z,34.50
2018-08-02T12:52:16.240Z,34.00
2018-08-02T12:54:44.406Z,33.50
2018-08-02T12:57:12.622Z,33.30
2018-08-02T12:59:40.844Z,32.90
2018-08-02T13:02:09.626Z,32.80
2018-08-02T13:04:37.951Z,32.50
2018-08-02T13:07:06.219Z,32.30
2018-08-02T13:09:34.818Z,32.20
2018-08-02T13:12:03.035Z,31.90
2018-08-02T13:14:31.267Z,32.90
2018-08-02T13:16:59.506Z,32.50
2018-08-02T13:19:27.722Z,32.10
2018-08-02T13:21:55.957Z,31.90
2018-08-02T13:24:24.298Z,32.70
2018-08-02T13:26:52.445Z,33.50
2018-08-02T13:29:20.709Z,33.80
2018-08-02T13:31:49.079Z,33.80
2018-08-02T13:34:17.172Z,35.00
2018-08-02T13:36:45.353Z,33.70
2018-08-02T13:39:13.616Z,33.80
2018-08-02T13:41:41.954Z,33.70
2018-08-02T13:44:10.410Z,34.30
2018-08-02T13:46:38.589Z,33.70
2018-08-02T13:49:06.818Z,33.70
2018-08-02T13:51:35.117Z,33.90
2018-08-02T13:54:03.895Z,33.70
2018-08-02T13:56:32.148Z,33.50
2018-08-02T13:59:01.480Z,34.50
2018-08-02T14:01:29.993Z,34.00
2018-08-02T14:03:58.269Z,33.80
2018-08-02T14:06:26.530Z,33.70
2018-08-02T14:08:54.717Z,33.90
2018-08-02T14:11:23.121Z,33.40
2018-08-02T14:13:51.391Z,33.10
2018-08-02T14:16:19.613Z,32.90
2018-08-02T14:21:22.453Z,32.20
2018-08-02T14:23:50.674Z,32.50
2018-08-02T14:26:19.033Z,32.70
2018-08-02T14:28:47.243Z,32.60
2018-08-02T14:31:15.473Z,33.10
2018-08-02T14:33:44.499Z,33.20
2018-08-02T14:36:12.795Z,32.80
2018-08-02T14:38:41.172Z,32.50
2018-08-02T14:41:09.265Z,32.40
2018-08-02T14:43:37.506Z,32.40
2018-08-02T14:46:05.724Z,32.00
2018-08-02T14:48:33.964Z,32.00
2018-08-02T14:51:02.195Z,32.30
2018-08-02T14:53:30.477Z,33.10
2018-08-02T14:55:58.701Z,34.10
2018-08-02T14:58:26.948Z,34.10
2018-08-02T15:00:55.245Z,33.70
2018-08-02T15:03:23.522Z,33.40
2018-08-02T15:05:51.743Z,33.90
2018-08-02T15:08:20.009Z,34.00
2018-08-02T15:10:48.222Z,33.60
2018-08-02T15:13:16.498Z,33.30
2018-08-02T15:15:44.778Z,33.10
2018-08-02T15:18:13.025Z,33.50
2018-08-02T15:20:41.351Z,33.30
2018-08-02T15:23:09.598Z,33.40
2018-08-02T15:25:37.862Z,33.40
2018-08-02T15:28:06.148Z,31.70
2018-08-02T15:30:34.489Z,32.30
2018-08-02T15:33:02.811Z,34.00
2018-08-02T15:35:31.026Z,35.20
2018-08-02T15:37:59.569Z,35.50
2018-08-02T15:40:27.841Z,36.60
2018-08-02T15:42:56.123Z,37.10
2018-08-02T15:45:24.422Z,37.20
2018-08-02T15:47:52.826Z,37.50
2018-08-02T15:50:21.042Z,38.00
2018-08-02T15:52:49.344Z,38.80
2018-08-02T15:55:17.574Z,39.50
2018-08-02T15:57:45.848Z,38.70
2018-08-02T16:00:14.130Z,38.20
2018-08-02T16:02:42.334Z,38.10
2018-08-02T16:05:10.575Z,37.20
2018-08-02T16:07:38.799Z,36.80
2018-08-02T16:10:08.203Z,38.60
2018-08-02T16:12:36.513Z,38.30
2018-08-02T16:15:05.419Z,38.40
2018-08-02T16:17:33.695Z,38.00
2018-08-02T16:20:02.028Z,38.30
2018-08-02T16:22:30.512Z,38.10
2018-08-02T16:24:58.728Z,38.00
2018-08-02T16:27:27.039Z,38.10
2018-08-02T16:29:55.314Z,37.20
2018-08-02T16:32:23.590Z,36.50
2018-08-02T16:34:51.786Z,36.20
2018-08-02T16:37:20.034Z,35.40
2018-08-02T16:39:48.286Z,35.00
2018-08-02T16:42:16.475Z,35.00
2018-08-02T16:44:44.840Z,34.40
2018-08-02T16:47:15.309Z,34.00
2018-08-02T16:49:43.600Z,34.20
2018-08-02T16:52:11.834Z,34.80
2018-08-02T16:54:40.433Z,35.70
2018-08-02T16:57:08.712Z,36.60
2018-08-02T16:59:36.971Z,37.60
2018-08-02T17:02:05.309Z,37.70
2018-08-02T17:04:33.728Z,38.40
2018-08-02T17:07:03.355Z,38.70
2018-08-02T17:09:31.617Z,38.50
2018-08-02T17:11:59.990Z,38.70
2018-08-02T17:14:28.269Z,39.00
2018-08-02T17:16:56.619Z,38.90
2018-08-02T17:19:24.814Z,38.50
2018-08-02T17:21:53.082Z,38.70
2018-08-02T17:24:21.346Z,39.50
2018-08-02T17:26:49.626Z,38.30
2018-08-02T17:29:17.938Z,38.80
2018-08-02T17:31:46.158Z,39.80
2018-08-02T17:34:14.413Z,39.60
2018-08-02T17:36:42.673Z,39.80
2018-08-02T17:39:12.786Z,39.70
2018-08-02T17:41:41.061Z,39.70
2018-08-02T17:44:09.855Z,39.80
2018-08-02T17:46:38.265Z,39.60
2018-08-02T17:49:06.542Z,39.20
2018-08-02T17:51:35.182Z,39.60
2018-08-02T17:54:04.174Z,39.60
2018-08-02T17:56:32.858Z,39.30
2018-08-02T17:59:01.149Z,39.10
2018-08-02T18:01:29.581Z,39.10
2018-08-02T18:03:58.162Z,39.50
2018-08-02T18:06:27.114Z,39.40
2018-08-02T18:08:55.425Z,39.40
2018-08-02T18:11:23.790Z,39.60
2018-08-02T18:13:52.588Z,39.90
2018-08-02T18:16:21.002Z,39.90
2018-08-02T18:18:49.553Z,40.40
2018-08-02T18:21:17.842Z,41.40
2018-08-02T18:23:46.156Z,42.70
2018-08-02T18:26:14.380Z,43.70
2018-08-02T18:28:42.774Z,45.20
2018-08-02T18:31:10.992Z,46.40
2018-08-02T18:33:39.166Z,46.30
2018-08-02T18:36:07.435Z,45.80
2018-08-02T18:38:35.679Z,46.20
2018-08-02T18:41:03.873Z,47.00
2018-08-02T18:43:32.146Z,46.60
2018-08-02T18:46:00.594Z,47.50
2018-08-02T18:48:28.869Z,47.10
2018-08-02T18:50:57.090Z,48.00
2018-08-02T18:53:25.344Z,48.00
2018-08-02T18:55:53.633Z,48.50
2018-08-02T18:58:21.883Z,48.50
2018-08-02T19:00:50.286Z,48.00
2018-08-02T19:03:18.614Z,47.90
2018-08-02T19:05:46.899Z,47.70
2018-08-02T19:08:15.128Z,47.40
2018-08-02T19:10:43.410Z,47.90
2018-08-02T19:13:11.725Z,47.60
2018-08-02T19:15:40.029Z,47.70
2018-08-02T19:18:08.226Z,48.00
2018-08-02T19:20:36.555Z,47.90
2018-08-02T19:23:04.874Z,47.70
2018-08-02T19:25:33.118Z,48.20
2018-08-02T19:28:01.311Z,48.60
2018-08-02T19:30:29.589Z,48.80
2018-08-02T19:32:57.839Z,48.90
2018-08-02T19:35:26.069Z,49.00
2018-08-02T19:37:54.365Z,49.50
2018-08-02T19:40:22.562Z,49.70
2018-08-02T19:42:50.782Z,50.00
2018-08-02T19:45:19.078Z,50.10
2018-08-02T19:47:47.802Z,50.50
2018-08-02T19:50:16.022Z,50.90
2018-08-02T19:52:44.568Z,51.60
2018-08-02T19:55:13.278Z,51.80
2018-08-02T19:57:41.477Z,52.90
2018-08-02T20:00:10.222Z,52.30
2018-08-02T20:02:38.538Z,52.20
2018-08-02T20:05:06.924Z,52.20
2018-08-02T20:07:35.128Z,52.50
2018-08-02T20:10:03.523Z,53.30
2018-08-02T20:12:31.808Z,53.20
2018-08-02T20:15:00.541Z,53.10
2018-08-02T20:17:29.245Z,53.20
2018-08-02T20:19:57.479Z,53.60
2018-08-02T20:22:25.730Z,53.70
2018-08-02T20:24:53.915Z,53.90
2018-08-02T20:27:22.204Z,54.10
2018-08-02T20:29:50.428Z,54.30
2018-08-02T20:32:18.654Z,54.40
2018-08-02T20:34:46.881Z,54.60
2018-08-02T20:37:15.187Z,54.80
2018-08-02T20:39:43.762Z,55.00
2018-08-02T20:42:11.972Z,55.40
2018-08-02T20:44:40.156Z,55.40
2018-08-02T20:47:08.412Z,56.00
2018-08-02T20:49:36.640Z,55.70
2018-08-02T20:52:05.138Z,55.80
2018-08-02T20:54:33.807Z,56.20
2018-08-02T20:57:02.095Z,57.00
2018-08-02T20:59:30.314Z,57.30
2018-08-02T21:01:58.538Z,57.30
2018-08-02T21:04:26.814Z,57.70
2018-08-02T21:06:54.990Z,58.00
2018-08-02T21:09:23.187Z,58.40
2018-08-02T21:11:51.677Z,58.20
2018-08-02T21:14:19.868Z,58.50
2018-08-02T21:16:48.121Z,58.10
2018-08-02T21:19:16.564Z,57.90
2018-08-02T21:21:44.737Z,58.50
2018-08-02T21:24:13.126Z,59.00
2018-08-02T21:26:41.395Z,59.10
2018-08-02T21:29:09.969Z,59.00
2018-08-02T21:31:38.208Z,59.60
2018-08-02T21:34:06.492Z,59.80
2018-08-02T21:36:34.838Z,59.70
2018-08-02T21:39:03.435Z,60.70
2018-08-02T21:41:31.743Z,59.90
2018-08-02T21:43:59.979Z,59.50
2018-08-02T21:46:28.250Z,59.80
2018-08-02T21:48:56.540Z,59.70
2018-08-02T21:51:24.801Z,60.10
2018-08-02T21:53:53.007Z,60.40
2018-08-02T21:56:21.430Z,60.40
2018-08-02T21:58:49.642Z,60.40
2018-08-02T22:01:17.923Z,60.90
2018-08-02T22:03:46.251Z,60.50
2018-08-02T22:06:16.652Z,60.20
2018-08-02T22:08:45.320Z,60.20
2018-08-02T22:11:13.706Z,60.00
2018-08-02T22:13:47.385Z,60.20
2018-08-02T22:16:21.502Z,60.00
2018-08-02T22:18:49.757Z,59.90
2018-08-02T22:21:17.957Z,60.00
2018-08-02T22:23:46.335Z,60.00
2018-08-02T22:26:14.622Z,59.80
2018-08-02T22:28:42.843Z,59.80
2018-08-02T22:31:11.075Z,59.80
2018-08-02T22:33:39.705Z,59.90
2018-08-02T22:36:07.910Z,60.00
2018-08-02T22:38:36.652Z,60.10
2018-08-02T22:41:04.907Z,60.00
2018-08-02T22:43:34.047Z,60.00
2018-08-02T22:46:02.351Z,60.10
2018-08-02T22:48:30.623Z,59.90
2018-08-02T22:50:58.906Z,59.90
2018-08-02T22:53:27.155Z,59.50
2018-08-02T22:55:55.435Z,59.30
2018-08-02T22:58:23.722Z,59.10
2018-08-02T23:00:52.007Z,59.20
2018-08-02T23:03:20.689Z,59.50
2018-08-02T23:05:48.970Z,60.10
2018-08-02T23:08:17.170Z,60.40
2018-08-02T23:10:45.526Z,60.50
2018-08-02T23:13:13.790Z,60.50
2018-08-02T23:15:42.063Z,60.50
2018-08-02T23:18:10.318Z,60.50
2018-08-02T23:20:38.522Z,60.40
2018-08-02T23:23:06.797Z,60.70
2018-08-02T23:25:35.023Z,61.10
2018-08-02T23:28:03.238Z,61.00
2018-08-02T23:30:31.474Z,61.30
2018-08-02T23:32:59.716Z,62.00
2018-08-02T23:35:27.972Z,62.60
2018-08-02T23:37:56.193Z,62.90
2018-08-02T23:40:24.442Z,63.00
2018-08-02T23:42:52.715Z,63.00
2018-08-02T23:45:20.886Z,62.90
2018-08-02T23:47:49.126Z,62.70
2018-08-02T23:50:17.322Z,62.50
2018-08-02T23:52:45.506Z,62.30
2018-08-02T23:55:13.736Z,62.10
2018-08-02T23:57:41.958Z,62.40
